createdAt,value
2023-04-01T00:01:17.400Z,6.32
2023-04-01T00:03:45.238Z,5.57
2023-04-01T00:06:18.483Z,6.88
2023-04-01T00:08:46.169Z,6.78
2023-04-01T00:11:13.527Z,5.50
2023-04-01T00:13:40.235Z,5.45
2023-04-01T00:16:17.938Z,6.83
2023-04-01T00:18:48.270Z,6.00
2023-04-01T00:21:15.633Z,6.82
2023-04-01T00:23:42.635Z,6.50
2023-04-01T00:26:09.314Z,6.65
2023-04-01T00:28:37.024Z,7.10
2023-04-01T00:31:08.683Z,6.68
2023-04-01T00:33:36.520Z,5.65
2023-04-01T00:36:22.828Z,6.07
2023-04-01T00:38:49.969Z,5.82
2023-04-01T00:41:18.186Z,8.03
2023-04-01T00:43:47.550Z,6.47
2023-04-01T00:46:15.527Z,5.82
2023-04-01T00:48:50.185Z,6.07
2023-04-01T00:51:24.664Z,6.90
2023-04-01T00:53:53.879Z,6.37
2023-04-01T00:56:26.114Z,6.30
2023-04-01T00:58:59.291Z,8.68
2023-04-01T01:01:26.867Z,7.45
2023-04-01T01:03:53.924Z,7.30
2023-04-01T01:06:32.304Z,7.77
2023-04-01T01:09:10.952Z,6.75
2023-04-01T01:11:52.289Z,7.05
2023-04-01T01:14:28.732Z,7.00
2023-04-01T01:17:07.869Z,6.25
2023-04-01T01:19:34.803Z,6.67
2023-04-01T01:22:14.407Z,7.88
2023-04-01T01:24:51.164Z,6.75
2023-04-01T01:27:20.698Z,6.78
2023-04-01T01:29:56.299Z,7.43
2023-04-01T01:32:51.269Z,6.97
2023-04-01T01:35:35.406Z,6.43
2023-04-01T01:38:27.134Z,7.32
2023-04-01T01:41:02.229Z,6.63
2023-04-01T01:43:36.318Z,6.22
2023-04-01T01:46:08.773Z,7.73
2023-04-01T01:48:36.885Z,5.25
2023-04-01T01:51:06.859Z,4.82
2023-04-01T01:53:33.633Z,4.95
2023-04-01T01:56:00.545Z,3.92
2023-04-01T01:58:41.391Z,4.13
2023-04-01T02:01:21.351Z,3.95
2023-04-01T02:03:49.585Z,3.40
2023-04-01T02:06:19.668Z,3.10
2023-04-01T02:08:57.194Z,3.00
2023-04-01T02:11:33.137Z,3.20
2023-04-01T02:14:07.552Z,3.50
2023-04-01T02:16:52.542Z,2.92
2023-04-01T02:19:23.663Z,2.63
2023-04-01T02:21:56.309Z,3.28
2023-04-01T02:24:25.724Z,2.77
2023-04-01T02:26:53.324Z,2.78
2023-04-01T02:29:23.781Z,2.80
2023-04-01T02:31:52.146Z,2.60
2023-04-01T02:34:20.255Z,2.42
2023-04-01T02:36:49.091Z,2.50
2023-04-01T02:39:16.331Z,2.67
2023-04-01T02:41:45.386Z,2.50
2023-04-01T02:44:13.868Z,2.88
2023-04-01T02:46:40.941Z,2.65
2023-04-01T02:49:07.960Z,2.60
2023-04-01T02:51:35.112Z,2.83
2023-04-01T02:54:02.143Z,3.30
2023-04-01T02:56:29.427Z,2.35
2023-04-01T02:58:56.212Z,3.60
2023-04-01T03:01:23.717Z,2.50
2023-04-01T03:03:50.853Z,2.65
2023-04-01T03:06:18.435Z,2.80
2023-04-01T03:08:45.851Z,2.90
2023-04-01T03:11:13.149Z,2.92
2023-04-01T03:13:40.076Z,2.70
2023-04-01T03:16:07.087Z,2.72
2023-04-01T03:18:35.544Z,2.38
2023-04-01T03:21:20.487Z,2.65
2023-04-01T03:23:47.535Z,2.47
2023-04-01T03:26:14.792Z,2.67
2023-04-01T03:28:42.075Z,2.58
2023-04-01T03:31:08.933Z,2.65
2023-04-01T03:33:41.961Z,2.50
2023-04-01T03:36:09.075Z,2.45
2023-04-01T03:38:36.492Z,2.83
2023-04-01T03:41:03.500Z,2.33
2023-04-01T03:43:31.587Z,3.28
2023-04-01T03:45:59.308Z,3.25
2023-04-01T03:48:26.787Z,3.22
2023-04-01T03:50:53.981Z,3.37
2023-04-01T03:53:21.271Z,3.40
2023-04-01T03:55:48.692Z,4.57
2023-04-01T03:58:16.168Z,4.82
2023-04-01T04:00:42.943Z,5.00
2023-04-01T04:03:11.096Z,6.23
2023-04-01T04:05:38.527Z,5.68
2023-04-01T04:08:05.694Z,6.20
2023-04-01T04:10:32.994Z,6.80
2023-04-01T04:12:59.738Z,7.38
2023-04-01T04:15:30.250Z,6.87
2023-04-01T04:17:57.186Z,6.25
2023-04-01T04:20:24.077Z,6.65
2023-04-01T04:22:50.830Z,7.22
2023-04-01T04:25:17.544Z,7.22
2023-04-01T04:27:45.015Z,6.67
2023-04-01T04:30:13.638Z,6.70
2023-04-01T04:32:42.275Z,6.43
2023-04-01T04:35:10.801Z,6.55
2023-04-01T04:37:37.934Z,5.65
2023-04-01T04:40:05.104Z,5.47
2023-04-01T04:42:32.447Z,5.30
2023-04-01T04:45:05.735Z,6.00
2023-04-01T04:47:34.493Z,5.10
2023-04-01T04:50:01.300Z,5.38
2023-04-01T04:52:28.433Z,4.93
2023-04-01T04:54:55.263Z,4.80
2023-04-01T04:57:21.949Z,5.70
2023-04-01T04:59:54.576Z,4.43
2023-04-01T05:02:37.365Z,4.80
2023-04-01T05:05:05.147Z,5.00
2023-04-01T05:07:31.881Z,4.25
2023-04-01T05:09:58.742Z,4.25
2023-04-01T05:12:26.910Z,3.90
2023-04-01T05:15:00.391Z,4.18
2023-04-01T05:17:27.359Z,4.93
2023-04-01T05:19:54.283Z,3.95
2023-04-01T05:22:21.304Z,4.13
2023-04-01T05:24:48.412Z,4.20
2023-04-01T05:27:15.244Z,4.25
2023-04-01T05:29:43.069Z,4.80
2023-04-01T05:32:25.661Z,4.55
2023-04-01T05:34:53.241Z,5.18
2023-04-01T05:37:20.731Z,4.22
2023-04-01T05:39:47.637Z,4.93
2023-04-01T05:42:14.724Z,4.83
2023-04-01T05:44:41.445Z,4.25
2023-04-01T05:47:08.191Z,4.72
2023-04-01T05:49:36.554Z,3.70
2023-04-01T05:52:04.453Z,4.50
2023-04-01T05:54:34.364Z,3.43
2023-04-01T05:57:01.063Z,3.97
2023-04-01T05:59:27.891Z,3.80
2023-04-01T06:01:55.282Z,3.30
2023-04-01T06:04:22.486Z,2.90
2023-04-01T06:06:49.384Z,2.93
2023-04-01T06:09:17.539Z,3.53
2023-04-01T06:11:50.251Z,2.97
2023-04-01T06:14:41.913Z,2.97
2023-04-01T06:17:27.881Z,3.30
2023-04-01T06:19:58.682Z,3.70
2023-04-01T06:22:51.414Z,3.60
2023-04-01T06:25:50.445Z,3.50
2023-04-01T06:28:36.149Z,3.97
2023-04-01T06:31:21.859Z,3.72
2023-04-01T06:34:21.537Z,3.80
2023-04-01T06:36:57.674Z,3.40
2023-04-01T06:39:45.716Z,3.38
2023-04-01T06:42:27.874Z,3.10
2023-04-01T06:45:07.282Z,3.15
2023-04-01T06:48:02.784Z,3.43
2023-04-01T06:50:54.182Z,3.45
2023-04-01T06:54:11.708Z,3.30
2023-04-01T06:57:33.710Z,2.28
2023-04-01T07:00:04.339Z,1.80
2023-04-01T07:02:46.085Z,2.00
2023-04-01T07:05:14.646Z,1.67
2023-04-01T07:07:47.069Z,1.75
2023-04-01T07:10:20.555Z,1.90
2023-04-01T07:13:11.658Z,2.00
2023-04-01T07:16:31.212Z,2.10
2023-04-01T07:19:17.573Z,2.42
2023-04-01T07:22:05.589Z,2.65
2023-04-01T07:24:53.674Z,2.20
2023-04-01T07:27:20.468Z,3.03
2023-04-01T07:29:48.478Z,2.50
2023-04-01T07:32:36.377Z,3.30
2023-04-01T07:35:23.446Z,3.40
2023-04-01T07:38:08.918Z,3.30
2023-04-01T07:40:59.037Z,4.00
2023-04-01T07:43:50.800Z,3.60
2023-04-01T07:46:53.412Z,4.18
2023-04-01T07:49:28.847Z,3.72
2023-04-01T07:52:23.575Z,3.60
2023-04-01T07:54:56.356Z,4.40
2023-04-01T07:57:57.629Z,4.13
2023-04-01T08:00:43.005Z,4.53
2023-04-01T08:03:51.643Z,4.63
2023-04-01T08:06:28.791Z,4.40
2023-04-01T08:09:11.496Z,4.13
2023-04-01T08:12:09.833Z,3.83
2023-04-01T08:15:08.386Z,4.90
2023-04-01T08:18:41.130Z,4.07
2023-04-01T08:21:43.386Z,4.10
2023-04-01T08:24:27.821Z,4.05
2023-04-01T08:27:00.605Z,4.03
2023-04-01T08:29:49.208Z,4.40
2023-04-01T08:32:23.246Z,5.03
2023-04-01T08:35:08.628Z,4.30
2023-04-01T08:37:41.020Z,4.95
2023-04-01T08:40:35.335Z,4.60
2023-04-01T08:43:32.645Z,4.78
2023-04-01T08:46:36.483Z,5.10
2023-04-01T08:49:27.801Z,4.57
2023-04-01T08:52:25.565Z,4.72
2023-04-01T08:55:03.915Z,4.90
2023-04-01T08:58:22.455Z,4.93
2023-04-01T09:01:27.030Z,5.32
2023-04-01T09:04:22.962Z,4.85
2023-04-01T09:07:14.852Z,5.60
2023-04-01T09:09:50.421Z,5.57
2023-04-01T09:12:36.117Z,5.43
2023-04-01T09:15:15.278Z,4.70
2023-04-01T09:18:07.261Z,5.03
2023-04-01T09:20:48.719Z,4.55
2023-04-01T09:23:33.083Z,4.30
2023-04-01T09:26:24.433Z,4.50
2023-04-01T09:29:17.491Z,4.60
2023-04-01T09:31:56.168Z,4.25
2023-04-01T09:34:55.534Z,4.28
2023-04-01T09:37:38.406Z,3.97
2023-04-01T09:40:35.007Z,4.28
2023-04-01T09:43:11.301Z,5.07
2023-04-01T09:45:44.296Z,4.75
2023-04-01T09:48:42.150Z,4.80
2023-04-01T09:51:11.824Z,5.00
2023-04-01T09:53:49.015Z,4.60
2023-04-01T09:56:56.230Z,4.97
2023-04-01T09:59:50.506Z,5.13
2023-04-01T10:03:13.992Z,5.10
2023-04-01T10:05:52.786Z,4.70
2023-04-01T10:08:32.127Z,5.15
2023-04-01T10:11:27.917Z,5.28
2023-04-01T10:14:07.152Z,6.10
2023-04-01T10:16:54.354Z,4.50
2023-04-01T10:19:30.733Z,3.87
2023-04-01T10:22:36.615Z,4.88
2023-04-01T10:25:37.770Z,3.85
2023-04-01T10:28:30.848Z,3.90
2023-04-01T10:31:36.561Z,3.97
2023-04-01T10:34:28.770Z,4.20
2023-04-01T10:36:59.663Z,4.00
2023-04-01T10:40:16.596Z,4.30
2023-04-01T10:43:13.371Z,4.57
2023-04-01T10:46:03.729Z,4.72
2023-04-01T10:48:58.684Z,3.93
2023-04-01T10:51:59.514Z,4.85
2023-04-01T10:55:26.110Z,4.13
2023-04-01T10:58:38.631Z,3.88
2023-04-01T11:02:10.095Z,3.40
2023-04-01T11:05:37.244Z,2.90
2023-04-01T11:08:34.177Z,3.47
2023-04-01T11:11:35.769Z,3.22
2023-04-01T11:14:21.487Z,3.15
2023-04-01T11:17:26.873Z,2.70
2023-04-01T11:20:23.768Z,2.30
2023-04-01T11:23:19.973Z,2.25
2023-04-01T11:26:18.753Z,2.17
2023-04-01T11:29:09.714Z,1.42
2023-04-01T11:31:59.172Z,1.77
2023-04-01T11:35:20.357Z,1.00
2023-04-01T11:37:58.574Z,1.30
2023-04-01T11:40:59.301Z,1.52
2023-04-01T11:44:16.040Z,1.25
2023-04-01T11:47:24.767Z,1.42
2023-04-01T11:50:13.688Z,1.13
2023-04-01T11:53:22.249Z,1.50
2023-04-01T11:56:20.933Z,1.58
2023-04-01T11:59:26.372Z,1.80
2023-04-01T12:02:15.326Z,1.60
2023-04-01T12:05:03.195Z,1.60
2023-04-01T12:07:54.287Z,1.73
2023-04-01T12:10:54.295Z,2.28
2023-04-01T12:13:21.041Z,2.47
2023-04-01T12:16:24.662Z,2.58
2023-04-01T12:19:11.177Z,3.10
2023-04-01T12:21:39.663Z,3.70
2023-04-01T12:24:32.202Z,4.05
2023-04-01T12:27:20.382Z,3.97
2023-04-01T12:30:06.141Z,4.78
2023-04-01T12:32:49.181Z,5.07
2023-04-01T12:35:36.437Z,5.65
2023-04-01T12:38:19.778Z,5.32
2023-04-01T12:41:11.205Z,6.50
2023-04-01T12:44:10.844Z,6.90
2023-04-01T12:46:56.353Z,6.13
2023-04-01T12:49:46.625Z,6.70
2023-04-01T12:52:19.729Z,7.03
2023-04-01T12:55:04.088Z,6.68
2023-04-01T12:58:18.177Z,6.00
2023-04-01T13:01:09.390Z,6.30
2023-04-01T13:04:00.652Z,6.47
2023-04-01T13:06:36.932Z,6.70
2023-04-01T13:09:26.598Z,7.03
2023-04-01T13:12:08.335Z,6.22
2023-04-01T13:15:00.850Z,5.93
2023-04-01T13:17:40.916Z,5.25
2023-04-01T13:20:10.709Z,4.68
2023-04-01T13:23:12.936Z,4.20
2023-04-01T13:26:06.911Z,4.28
2023-04-01T13:29:14.653Z,4.17
2023-04-01T13:31:58.456Z,3.92
2023-04-01T13:34:39.700Z,2.95
2023-04-01T13:37:31.307Z,3.30
2023-04-01T13:40:16.636Z,3.70
2023-04-01T13:43:19.128Z,2.47
2023-04-01T13:46:16.633Z,2.38
2023-04-01T13:48:55.639Z,3.10
2023-04-01T13:51:54.203Z,3.00
2023-04-01T13:54:30.921Z,3.30
2023-04-01T13:57:38.357Z,2.80
2023-04-01T14:00:36.660Z,2.92
2023-04-01T14:03:09.922Z,3.10
2023-04-01T14:06:03.461Z,3.40
2023-04-01T14:09:00.862Z,4.43
2023-04-01T14:11:45.725Z,4.70
2023-04-01T14:14:37.329Z,4.28
2023-04-01T14:17:18.888Z,4.43
2023-04-01T14:20:16.745Z,4.53
2023-04-01T14:23:24.955Z,4.40
2023-04-01T14:26:20.882Z,4.17
2023-04-01T14:29:15.693Z,3.97
2023-04-01T14:32:04.602Z,4.30
2023-04-01T14:34:56.327Z,3.80
2023-04-01T14:37:55.231Z,3.50
2023-04-01T14:40:39.759Z,3.40
2023-04-01T14:43:38.959Z,3.50
2023-04-01T14:46:39.323Z,3.63
2023-04-01T14:49:32.340Z,4.18
2023-04-01T14:52:11.086Z,3.33
2023-04-01T14:54:40.898Z,3.63
2023-04-01T14:57:26.731Z,3.90
2023-04-01T15:00:05.320Z,3.65
2023-04-01T15:02:41.291Z,3.60
2023-04-01T15:05:15.938Z,3.50
2023-04-01T15:08:12.493Z,3.17
2023-04-01T15:10:39.166Z,3.80
2023-04-01T15:13:35.316Z,3.88
2023-04-01T15:16:23.307Z,3.63
2023-04-01T15:19:17.933Z,3.33
2023-04-01T15:22:16.890Z,3.20
2023-04-01T15:24:58.008Z,2.95
2023-04-01T15:27:46.108Z,3.42
2023-04-01T15:30:36.432Z,3.10
2023-04-01T15:33:24.012Z,2.97
2023-04-01T15:36:08.982Z,3.20
2023-04-01T15:38:51.007Z,2.85
2023-04-01T15:41:36.799Z,2.92
2023-04-01T15:44:04.361Z,2.75
2023-04-01T15:46:49.796Z,2.67
2023-04-01T15:49:39.318Z,2.73
2023-04-01T15:52:43.332Z,2.72
2023-04-01T15:55:48.662Z,2.55
2023-04-01T15:58:35.333Z,2.45
2023-04-01T16:01:28.298Z,3.10
2023-04-01T16:04:01.141Z,3.10
2023-04-01T16:06:46.996Z,2.88
2023-04-01T16:09:13.601Z,3.00
2023-04-01T16:11:43.222Z,2.67
2023-04-01T16:14:32.698Z,2.78
2023-04-01T16:17:05.487Z,2.80
2023-04-01T16:19:42.144Z,2.70
2023-04-01T16:22:27.393Z,3.17
2023-04-01T16:25:02.409Z,3.15
2023-04-01T16:27:45.314Z,3.45
2023-04-01T16:30:36.048Z,3.20
2023-04-01T16:33:11.348Z,3.67
2023-04-01T16:36:12.320Z,3.08
2023-04-01T16:38:53.890Z,3.20
2023-04-01T16:41:26.918Z,3.63
2023-04-01T16:43:59.624Z,3.17
2023-04-01T16:46:36.993Z,3.13
2023-04-01T16:49:12.764Z,3.28
2023-04-01T16:51:58.260Z,3.03
2023-04-01T16:55:00.951Z,3.40
2023-04-01T16:57:37.873Z,3.27
2023-04-01T17:00:28.120Z,2.70
2023-04-01T17:03:18.215Z,3.33
2023-04-01T17:05:58.869Z,3.53
2023-04-01T17:08:47.051Z,2.70
2023-04-01T17:11:21.886Z,2.87
2023-04-01T17:14:04.039Z,3.00
2023-04-01T17:16:36.617Z,3.47
2023-04-01T17:19:27.244Z,3.40
2023-04-01T17:22:02.730Z,2.80
2023-04-01T17:24:38.886Z,2.73
2023-04-01T17:27:43.923Z,3.17
2023-04-01T17:30:10.704Z,3.50
2023-04-01T17:33:01.348Z,2.60
2023-04-01T17:35:35.977Z,2.92
2023-04-01T17:38:14.894Z,2.83
2023-04-01T17:41:01.283Z,3.03
2023-04-01T17:43:41.351Z,3.58
2023-04-01T17:46:45.656Z,3.60
2023-04-01T17:49:17.847Z,3.20
2023-04-01T17:51:55.666Z,2.73
2023-04-01T17:54:43.816Z,3.10
2023-04-01T17:57:51.630Z,3.60
2023-04-01T18:00:22.319Z,3.35
2023-04-01T18:02:58.183Z,3.30
2023-04-01T18:06:02.635Z,3.30
2023-04-01T18:09:16.671Z,2.88
2023-04-01T18:12:03.601Z,3.40
2023-04-01T18:14:48.477Z,3.05
2023-04-01T18:17:21.732Z,3.53
2023-04-01T18:19:57.501Z,3.37
2023-04-01T18:22:38.450Z,3.13
2023-04-01T18:25:28.304Z,3.40
2023-04-01T18:28:17.462Z,3.70
2023-04-01T18:30:54.601Z,3.75
2023-04-01T18:33:29.961Z,3.50
2023-04-01T18:36:22.800Z,3.45
2023-04-01T18:39:02.808Z,3.78
2023-04-01T18:41:51.163Z,3.70
2023-04-01T18:44:43.049Z,3.58
2023-04-01T18:47:26.170Z,3.80
2023-04-01T18:50:35.319Z,3.80
2023-04-01T18:53:16.932Z,3.85
2023-04-01T18:55:53.791Z,3.65
2023-04-01T18:58:23.395Z,3.95
2023-04-01T19:01:17.335Z,3.60
2023-04-01T19:04:02.379Z,3.17
2023-04-01T19:06:52.722Z,3.72
2023-04-01T19:09:31.191Z,4.00
2023-04-01T19:12:20.362Z,4.63
2023-04-01T19:15:14.184Z,3.20
2023-04-01T19:18:08.104Z,4.35
2023-04-01T19:20:44.437Z,5.75
2023-04-01T19:24:09.350Z,5.43
2023-04-01T19:26:47.921Z,3.70
2023-04-01T19:29:33.409Z,3.40
2023-04-01T19:32:25.653Z,3.53
2023-04-01T19:35:13.023Z,3.65
2023-04-01T19:38:10.298Z,3.38
2023-04-01T19:40:42.734Z,3.60
2023-04-01T19:43:14.313Z,4.07
2023-04-01T19:45:44.232Z,3.70
2023-04-01T19:48:28.800Z,3.80
2023-04-01T19:51:17.849Z,3.30
2023-04-01T19:54:03.891Z,3.55
2023-04-01T19:56:45.359Z,3.80
2023-04-01T19:59:25.077Z,4.35
2023-04-01T20:01:57.712Z,4.32
2023-04-01T20:04:34.331Z,4.30
2023-04-01T20:07:21.085Z,4.38
2023-04-01T20:10:15.502Z,4.50
2023-04-01T20:12:53.441Z,5.10
2023-04-01T20:15:47.656Z,4.72
2023-04-01T20:18:22.966Z,4.95
2023-04-01T20:21:18.880Z,5.18
2023-04-01T20:23:52.482Z,5.63
2023-04-01T20:26:31.814Z,5.55
2023-04-01T20:29:23.362Z,5.25
2023-04-01T20:32:21.085Z,6.00
2023-04-01T20:34:59.907Z,6.22
2023-04-01T20:37:38.645Z,5.20
2023-04-01T20:40:36.325Z,5.07
2023-04-01T20:43:44.525Z,6.18
2023-04-01T20:46:22.009Z,4.88
2023-04-01T20:48:57.619Z,5.90
2023-04-01T20:51:30.441Z,5.00
2023-04-01T20:54:28.549Z,5.07
2023-04-01T20:57:01.251Z,5.70
2023-04-01T20:59:48.229Z,5.50
2023-04-01T21:02:20.720Z,5.38
2023-04-01T21:05:21.211Z,5.47
2023-04-01T21:08:06.478Z,6.18
2023-04-01T21:10:51.104Z,5.72
2023-04-01T21:13:48.249Z,5.32
2023-04-01T21:16:39.945Z,4.72
2023-04-01T21:19:52.021Z,4.77
2023-04-01T21:23:03.976Z,4.22
2023-04-01T21:25:39.136Z,5.00
2023-04-01T21:28:32.392Z,5.07
2023-04-01T21:31:16.741Z,4.38
2023-04-01T21:33:52.206Z,4.60
2023-04-01T21:36:59.177Z,4.38
2023-04-01T21:39:48.391Z,4.97
2023-04-01T21:42:23.855Z,4.50
2023-04-01T21:45:01.878Z,4.50
2023-04-01T21:47:58.484Z,5.23
2023-04-01T21:50:46.566Z,4.78
2023-04-01T21:53:50.465Z,5.35
2023-04-01T21:56:29.055Z,4.60
2023-04-01T21:59:16.930Z,4.55
2023-04-01T22:02:33.075Z,4.37
2023-04-01T22:05:15.042Z,4.72
2023-04-01T22:07:52.268Z,4.57
2023-04-01T22:10:34.039Z,4.57
2023-04-01T22:13:09.175Z,5.60
2023-04-01T22:16:12.366Z,5.33
2023-04-01T22:19:04.244Z,4.88
2023-04-01T22:22:02.116Z,4.82
2023-04-01T22:24:48.562Z,4.88
2023-04-01T22:27:31.348Z,5.60
2023-04-01T22:30:16.244Z,4.87
2023-04-01T22:32:53.771Z,5.10
2023-04-01T22:35:52.094Z,4.97
2023-04-01T22:38:36.921Z,5.63
2023-04-01T22:41:20.978Z,6.13
2023-04-01T22:43:48.873Z,5.53
2023-04-01T22:46:34.648Z,5.95
2023-04-01T22:49:17.568Z,6.00
2023-04-01T22:51:54.420Z,5.70
2023-04-01T22:54:31.552Z,6.40
2023-04-01T22:57:16.115Z,5.30
2023-04-01T23:00:13.647Z,6.05
2023-04-01T23:03:02.904Z,5.95
2023-04-01T23:05:31.453Z,5.80
2023-04-01T23:08:02.609Z,6.13
2023-04-01T23:10:45.572Z,6.67
2023-04-01T23:13:20.632Z,6.03
2023-04-01T23:15:48.613Z,6.57
2023-04-01T23:18:26.241Z,5.50
2023-04-01T23:21:13.480Z,6.63
2023-04-01T23:24:07.740Z,7.30
2023-04-01T23:26:51.326Z,6.20
2023-04-01T23:29:20.277Z,6.70
2023-04-01T23:32:00.728Z,6.40
2023-04-01T23:34:39.087Z,6.57
2023-04-01T23:37:12.676Z,6.33
2023-04-01T23:39:46.417Z,7.05
2023-04-01T23:42:24.734Z,7.68
2023-04-01T23:44:54.530Z,6.88
2023-04-01T23:47:36.450Z,7.15
2023-04-01T23:50:12.401Z,7.47
2023-04-01T23:52:47.291Z,6.53
2023-04-01T23:55:25.254Z,6.65
2023-04-01T23:58:16.188Z,7.43
